Time;durP1;ratioP1;P1;durP2;ratioP2;P2;SDS_P1;SDS_P2;PMS_P1;PMS_P2;Temp;Humidity;BMP_temperature;BMP_pressure;BME280_temperature;BME280_humidity;BME280_pressure;Samples;Min_cycle;Max_cycle;Signal;HPM_P1;HPM_P2
2021/05/21 00:01:10;;;;;;;2.17;0.90;;;;;;;;;;10519204;28;20704;-70
2021/05/21 00:06:13;;;;;;;2.47;1.10;;;;;;;;;;10523136;28;20243;-71
2021/05/21 00:11:16;;;;;;;2.40;1.00;;;;;;;;;;10519647;28;20225;-69
2021/05/21 00:16:20;;;;;;;2.50;1.10;;;;;;;;;;10522765;28;20295;-71
2021/05/21 00:21:23;;;;;;;1.87;1.03;;;;;;;;;;10507246;28;20564;-69
2021/05/21 00:26:26;;;;;;;2.70;1.13;;;;;;;;;;10524167;28;20568;-71
2021/05/21 00:31:29;;;;;;;1.40;1.00;;;;;;;;;;10519525;28;20220;-69
2021/05/21 00:36:32;;;;;;;2.83;1.40;;;;;;;;;;10525387;28;20192;-69
2021/05/21 00:41:35;;;;;;;2.70;1.10;;;;;;;;;;10528484;28;20585;-67
2021/05/21 00:46:39;;;;;;;1.77;1.20;;;;;;;;;;10530212;28;20204;-69
2021/05/21 00:51:42;;;;;;;2.43;0.87;;;;;;;;;;10530029;28;20703;-69
2021/05/21 00:56:45;;;;;;;1.83;0.93;;;;;;;;;;10522879;28;20568;-70
2021/05/21 01:01:50;;;;;;;0.93;0.80;;;;;;;;;;10531268;28;20713;-69
2021/05/21 01:06:53;;;;;;;1.73;0.97;;;;;;;;;;10538837;28;20566;-68
2021/05/21 01:11:55;;;;;;;1.37;1.03;;;;;;;;;;10526700;28;20355;-71
2021/05/21 01:16:59;;;;;;;1.37;0.90;;;;;;;;;;10530105;28;20199;-70
2021/05/21 01:22:03;;;;;;;1.67;1.00;;;;;;;;;;10531041;28;20647;-71
2021/05/21 01:27:08;;;;;;;2.80;1.00;;;;;;;;;;10527879;28;20212;-70
2021/05/21 01:32:11;;;;;;;1.73;0.93;;;;;;;;;;10537857;28;20273;-68
2021/05/21 01:37:16;;;;;;;2.47;1.10;;;;;;;;;;10527179;28;20655;-71
2021/05/21 01:42:19;;;;;;;3.07;1.23;;;;;;;;;;10527942;28;20220;-69
2021/05/21 01:47:21;;;;;;;1.80;1.00;;;;;;;;;;10523132;28;20218;-68
2021/05/21 01:52:25;;;;;;;1.80;1.00;;;;;;;;;;10523783;28;20216;-69
2021/05/21 01:57:28;;;;;;;1.70;1.00;;;;;;;;;;10525460;28;20188;-70
2021/05/21 02:02:32;;;;;;;2.00;1.00;;;;;;;;;;10535601;28;20230;-71
2021/05/21 02:07:36;;;;;;;2.00;1.00;;;;;;;;;;10524195;28;20676;-70
2021/05/21 02:12:42;;;;;;;2.03;0.80;;;;;;;;;;10527163;28;20219;-70
2021/05/21 02:17:45;;;;;;;2.07;0.70;;;;;;;;;;10525841;28;20200;-71
2021/05/21 02:22:49;;;;;;;2.53;0.80;;;;;;;;;;10521428;28;20234;-70
2021/05/21 02:27:52;;;;;;;2.40;0.70;;;;;;;;;;10530072;28;20246;-69
2021/05/21 02:32:56;;;;;;;1.60;0.70;;;;;;;;;;10520070;28;20223;-71
2021/05/21 02:38:00;;;;;;;3.13;0.80;;;;;;;;;;10527025;28;20197;-70
2021/05/21 02:43:03;;;;;;;2.03;0.77;;;;;;;;;;10522930;28;20305;-71
2021/05/21 02:48:05;;;;;;;1.40;0.77;;;;;;;;;;10520382;28;20282;-70
2021/05/21 02:53:09;;;;;;;2.10;0.60;;;;;;;;;;10530841;28;20220;-71
2021/05/21 02:58:12;;;;;;;0.80;0.57;;;;;;;;;;10514537;28;20204;-70
2021/05/21 03:03:14;;;;;;;1.63;0.70;;;;;;;;;;10515238;28;20219;-72
2021/05/21 03:08:18;;;;;;;1.30;0.83;;;;;;;;;;10529543;28;20295;-71
2021/05/21 03:13:21;;;;;;;0.33;0.33;;;;;;;;;;10523355;28;20218;-72
2021/05/21 03:18:24;;;;;;;1.30;0.70;;;;;;;;;;10522872;28;20191;-72
2021/05/21 03:23:27;;;;;;;0.77;0.70;;;;;;;;;;10524000;28;20671;-70
2021/05/21 03:28:30;;;;;;;1.80;0.80;;;;;;;;;;10523211;28;20668;-72
2021/05/21 03:33:32;;;;;;;2.07;0.70;;;;;;;;;;10519629;28;20247;-72
2021/05/21 03:38:36;;;;;;;0.67;0.60;;;;;;;;;;10512109;28;20516;-71
2021/05/21 03:43:39;;;;;;;1.00;0.60;;;;;;;;;;10519613;28;20212;-70
2021/05/21 03:48:43;;;;;;;2.87;0.87;;;;;;;;;;10518837;28;20520;-72
2021/05/21 03:53:47;;;;;;;0.70;0.50;;;;;;;;;;10511938;28;20683;-71
2021/05/21 03:58:51;;;;;;;0.63;0.50;;;;;;;;;;10529978;28;20416;-71
2021/05/21 04:03:55;;;;;;;3.40;0.80;;;;;;;;;;10528744;28;20937;-70
2021/05/21 04:08:59;;;;;;;0.47;0.30;;;;;;;;;;10498864;28;20211;-69
2021/05/21 04:14:01;;;;;;;1.30;0.60;;;;;;;;;;10496365;28;20291;-68
2021/05/21 04:19:24;;;;;;;1.30;0.47;;;;;;;;;;10508799;28;20194;-70
2021/05/21 04:24:48;;;;;;;0.70;0.50;;;;;;;;;;10522021;28;20225;-71
2021/05/21 04:29:50;;;;;;;2.67;0.60;;;;;;;;;;10534642;28;20212;-72
2021/05/21 04:34:53;;;;;;;0.77;0.47;;;;;;;;;;10529027;28;20261;-71
2021/05/21 04:39:57;;;;;;;1.90;0.60;;;;;;;;;;10525653;28;20201;-70
2021/05/21 04:45:16;;;;;;;1.80;0.70;;;;;;;;;;10529351;28;20221;-71
2021/05/21 04:50:19;;;;;;;1.20;0.80;;;;;;;;;;10535339;28;20543;-70
2021/05/21 04:55:24;;;;;;;2.13;0.70;;;;;;;;;;10511697;28;20554;-72
2021/05/21 05:00:26;;;;;;;1.37;0.63;;;;;;;;;;10527266;28;20560;-72
2021/05/21 05:05:29;;;;;;;0.97;0.70;;;;;;;;;;10515511;28;20195;-71
2021/05/21 05:10:33;;;;;;;2.73;0.83;;;;;;;;;;10529234;28;20243;-72
2021/05/21 05:15:37;;;;;;;2.07;0.80;;;;;;;;;;10522852;28;20295;-70
2021/05/21 05:20:40;;;;;;;2.67;0.83;;;;;;;;;;10528964;28;20214;-70
2021/05/21 05:25:45;;;;;;;2.83;0.80;;;;;;;;;;10526120;28;20196;-70
2021/05/21 05:30:48;;;;;;;4.37;1.00;;;;;;;;;;10518682;28;20269;-72
2021/05/21 05:35:51;;;;;;;1.10;0.80;;;;;;;;;;10525258;28;20200;-74
2021/05/21 05:40:55;;;;;;;2.27;0.70;;;;;;;;;;10524115;28;20240;-71
2021/05/21 05:45:58;;;;;;;1.37;0.70;;;;;;;;;;10517055;28;20211;-70
2021/05/21 05:51:10;;;;;;;3.90;0.80;;;;;;;;;;10536246;28;20243;-71
2021/05/21 05:56:14;;;;;;;1.80;0.80;;;;;;;;;;10521596;28;20261;-70
2021/05/21 06:01:17;;;;;;;0.33;0.33;;;;;;;;;;10527271;28;20278;-68
2021/05/21 06:06:19;;;;;;;3.00;0.70;;;;;;;;;;10523420;28;20220;-71
2021/05/21 06:11:31;;;;;;;1.27;0.63;;;;;;;;;;10538124;28;20302;-70
2021/05/21 06:16:34;;;;;;;0.80;0.60;;;;;;;;;;10505474;28;20507;-71
2021/05/21 06:21:37;;;;;;;0.60;0.40;;;;;;;;;;10511276;28;20216;-70
2021/05/21 06:26:43;;;;;;;4.43;1.00;;;;;;;;;;10510884;28;20192;-70
2021/05/21 06:31:46;;;;;;;1.47;0.60;;;;;;;;;;10522090;28;20217;-72
2021/05/21 06:36:49;;;;;;;1.30;0.80;;;;;;;;;;10520941;28;20192;-70
2021/05/21 06:41:53;;;;;;;2.53;0.80;;;;;;;;;;10519951;28;20225;-72
2021/05/21 06:46:58;;;;;;;1.00;0.67;;;;;;;;;;10519148;28;20203;-71
2021/05/21 06:52:00;;;;;;;1.70;0.70;;;;;;;;;;10524691;28;20246;-71
2021/05/21 06:57:04;;;;;;;1.90;0.67;;;;;;;;;;10528542;28;20188;-71
2021/05/21 07:02:09;;;;;;;2.80;0.63;;;;;;;;;;10523760;28;20215;-72
2021/05/21 07:07:12;;;;;;;1.93;0.90;;;;;;;;;;10526632;28;20199;-72
2021/05/21 07:12:17;;;;;;;1.87;0.70;;;;;;;;;;10529593;28;20223;-71
2021/05/21 07:17:19;;;;;;;4.00;0.70;;;;;;;;;;10518935;28;20203;-71
2021/05/21 07:22:22;;;;;;;1.63;0.70;;;;;;;;;;10527188;28;20218;-71
2021/05/21 07:27:26;;;;;;;1.37;0.83;;;;;;;;;;10520832;28;20225;-72
2021/05/21 07:32:29;;;;;;;2.20;0.97;;;;;;;;;;10521919;28;20207;-72
2021/05/21 07:37:32;;;;;;;3.43;1.10;;;;;;;;;;10522500;28;20286;-70
2021/05/21 07:42:35;;;;;;;3.53;1.00;;;;;;;;;;10526044;28;20227;-71
2021/05/21 07:47:38;;;;;;;2.57;1.00;;;;;;;;;;10520417;28;20207;-72
2021/05/21 07:52:41;;;;;;;2.43;1.10;;;;;;;;;;10530882;28;20223;-69
2021/05/21 07:57:45;;;;;;;1.97;0.90;;;;;;;;;;10518035;28;20681;-69
2021/05/21 08:02:48;;;;;;;3.03;0.80;;;;;;;;;;10528616;28;20212;-68
2021/05/21 08:07:51;;;;;;;1.77;0.90;;;;;;;;;;10528917;28;20390;-70
2021/05/21 08:12:55;;;;;;;2.57;1.10;;;;;;;;;;10534100;28;20330;-72
2021/05/21 08:17:57;;;;;;;3.07;0.63;;;;;;;;;;10533726;28;20188;-70
2021/05/21 08:23:01;;;;;;;1.63;0.80;;;;;;;;;;10533358;28;20211;-70
2021/05/21 08:28:05;;;;;;;0.60;0.60;;;;;;;;;;10535674;28;20291;-71
2021/05/21 08:33:09;;;;;;;2.07;0.90;;;;;;;;;;10522783;28;20220;-71
2021/05/21 08:38:11;;;;;;;1.30;0.60;;;;;;;;;;10528822;28;20267;-71
2021/05/21 08:43:15;;;;;;;1.33;0.70;;;;;;;;;;10522626;28;20215;-71
2021/05/21 08:48:19;;;;;;;1.13;0.40;;;;;;;;;;10527743;28;20204;-71
2021/05/21 08:53:21;;;;;;;2.33;0.80;;;;;;;;;;10522323;28;20216;-70
2021/05/21 08:58:25;;;;;;;1.73;0.90;;;;;;;;;;10538192;28;20279;-71
2021/05/21 09:03:28;;;;;;;0.67;0.60;;;;;;;;;;10531132;28;20220;-72
2021/05/21 09:08:34;;;;;;;0.70;0.50;;;;;;;;;;10527273;28;20415;-70
2021/05/21 09:13:37;;;;;;;1.77;0.90;;;;;;;;;;10526939;28;20694;-72
2021/05/21 09:18:57;;;;;;;1.77;0.63;;;;;;;;;;10543754;28;20709;-69
2021/05/21 09:24:02;;;;;;;1.17;0.60;;;;;;;;;;10525344;28;20226;-70
2021/05/21 09:29:05;;;;;;;2.53;0.77;;;;;;;;;;10525945;28;20579;-70
2021/05/21 09:34:08;;;;;;;1.57;0.60;;;;;;;;;;10525267;28;20568;-69
2021/05/21 09:39:11;;;;;;;1.93;0.80;;;;;;;;;;10528402;28;20193;-68
2021/05/21 09:44:33;;;;;;;2.73;0.80;;;;;;;;;;10526192;28;20222;-70
2021/05/21 09:49:38;;;;;;;1.67;0.77;;;;;;;;;;10514991;28;20212;-69
2021/05/21 09:54:58;;;;;;;1.03;0.70;;;;;;;;;;10535659;28;21062;-69
2021/05/21 10:00:03;;;;;;;1.57;0.63;;;;;;;;;;10519539;28;20191;-70
2021/05/21 10:05:07;;;;;;;1.67;0.67;;;;;;;;;;10526480;28;20312;-69
2021/05/21 10:10:10;;;;;;;0.67;0.67;;;;;;;;;;10526541;28;20215;-70
2021/05/21 10:15:13;;;;;;;0.90;0.47;;;;;;;;;;10533138;28;20196;-70
2021/05/21 10:20:19;;;;;;;1.73;0.80;;;;;;;;;;10515404;28;20675;-69
2021/05/21 10:25:23;;;;;;;1.27;0.70;;;;;;;;;;10519193;28;20199;-69
2021/05/21 10:30:27;;;;;;;2.23;0.90;;;;;;;;;;10519239;28;20257;-71
2021/05/21 10:35:30;;;;;;;1.73;0.73;;;;;;;;;;10524713;28;20191;-69
2021/05/21 10:40:33;;;;;;;0.93;0.70;;;;;;;;;;10518597;28;20277;-68
2021/05/21 10:45:51;;;;;;;0.80;0.60;;;;;;;;;;10522983;28;20618;-70
2021/05/21 10:51:07;;;;;;;1.57;0.77;;;;;;;;;;10523342;28;20211;-69
2021/05/21 10:56:09;;;;;;;2.83;0.70;;;;;;;;;;10521273;28;20195;-70
2021/05/21 11:01:15;;;;;;;1.63;0.93;;;;;;;;;;10527059;28;20254;-70
2021/05/21 11:06:21;;;;;;;4.30;1.47;;;;;;;;;;10526461;28;20210;-69
2021/05/21 11:11:41;;;;;;;1.10;0.80;;;;;;;;;;10512592;28;20311;-70
2021/05/21 11:16:51;;;;;;;2.70;0.90;;;;;;;;;;10517807;28;20203;-70
2021/05/21 11:22:04;;;;;;;2.07;0.90;;;;;;;;;;10516865;28;20207;-71
2021/05/21 11:27:08;;;;;;;2.23;1.00;;;;;;;;;;10523202;28;20241;-71
2021/05/21 11:32:11;;;;;;;1.00;0.90;;;;;;;;;;10515259;28;20249;-70
2021/05/21 11:37:19;;;;;;;1.97;0.73;;;;;;;;;;10529537;28;20199;-71
2021/05/21 11:42:22;;;;;;;2.30;0.80;;;;;;;;;;10518961;28;20226;-71
2021/05/21 11:47:27;;;;;;;1.30;0.80;;;;;;;;;;10517240;28;20667;-71
2021/05/21 11:52:30;;;;;;;0.93;0.63;;;;;;;;;;10522309;28;20212;-71
2021/05/21 11:57:33;;;;;;;1.20;0.70;;;;;;;;;;10517890;28;20212;-71
2021/05/21 12:02:39;;;;;;;1.43;0.70;;;;;;;;;;10522469;28;20310;-70
2021/05/21 12:07:41;;;;;;;2.83;0.80;;;;;;;;;;10523005;28;20228;-68
2021/05/21 12:12:44;;;;;;;1.67;0.70;;;;;;;;;;10506696;28;20293;-71
2021/05/21 12:17:49;;;;;;;1.53;0.73;;;;;;;;;;10521221;28;20204;-73
2021/05/21 12:22:59;;;;;;;1.83;0.83;;;;;;;;;;10516059;28;20306;-71
2021/05/21 12:28:01;;;;;;;1.30;0.60;;;;;;;;;;10516317;28;20224;-71
2021/05/21 12:33:10;;;;;;;0.90;0.70;;;;;;;;;;10523572;28;20282;-71
2021/05/21 12:38:13;;;;;;;0.93;0.83;;;;;;;;;;10525174;28;20192;-71
2021/05/21 12:43:16;;;;;;;1.53;0.93;;;;;;;;;;10529518;28;20702;-70
2021/05/21 12:48:19;;;;;;;1.77;0.77;;;;;;;;;;10525190;28;20354;-72
2021/05/21 12:53:22;;;;;;;0.90;0.67;;;;;;;;;;10521306;28;20303;-70
2021/05/21 12:58:24;;;;;;;1.50;0.77;;;;;;;;;;10515264;28;20188;-70
2021/05/21 13:03:28;;;;;;;1.10;0.67;;;;;;;;;;10525596;28;20236;-69
2021/05/21 13:08:30;;;;;;;2.03;0.70;;;;;;;;;;10528777;28;20235;-72
2021/05/21 13:13:32;;;;;;;1.23;0.70;;;;;;;;;;10522194;28;20316;-71
2021/05/21 13:18:38;;;;;;;3.13;1.63;;;;;;;;;;10520888;28;20265;-71
2021/05/21 13:23:40;;;;;;;1.90;0.50;;;;;;;;;;10521914;28;20633;-70
2021/05/21 13:28:42;;;;;;;0.40;0.40;;;;;;;;;;10524448;28;20216;-70
2021/05/21 13:33:46;;;;;;;1.57;0.80;;;;;;;;;;10514883;28;20695;-71
2021/05/21 13:38:48;;;;;;;0.70;0.70;;;;;;;;;;10522201;28;20195;-70
2021/05/21 13:43:50;;;;;;;0.97;0.73;;;;;;;;;;10523951;28;20215;-70
2021/05/21 13:48:54;;;;;;;0.60;0.60;;;;;;;;;;10520794;28;20212;-70
2021/05/21 13:53:56;;;;;;;1.03;0.63;;;;;;;;;;10522811;28;20285;-70
2021/05/21 13:59:18;;;;;;;1.13;0.67;;;;;;;;;;10526432;28;20230;-69
2021/05/21 14:04:22;;;;;;;1.90;0.60;;;;;;;;;;10520542;28;20211;-69
2021/05/21 14:09:24;;;;;;;1.17;0.43;;;;;;;;;;10515456;28;20242;-70
2021/05/21 14:14:27;;;;;;;1.33;0.53;;;;;;;;;;10528540;28;20720;-71
2021/05/21 14:19:30;;;;;;;0.50;0.50;;;;;;;;;;10522183;28;20567;-70
2021/05/21 14:24:32;;;;;;;1.53;0.60;;;;;;;;;;10538850;28;20215;-69
2021/05/21 14:29:35;;;;;;;0.67;0.40;;;;;;;;;;10527834;28;20705;-70
2021/05/21 14:34:38;;;;;;;1.13;0.60;;;;;;;;;;10525443;28;20262;-70
2021/05/21 14:39:40;;;;;;;1.27;0.70;;;;;;;;;;10524188;28;20199;-70
2021/05/21 14:44:43;;;;;;;0.70;0.70;;;;;;;;;;10521598;28;20232;-71
2021/05/21 14:49:46;;;;;;;0.70;0.60;;;;;;;;;;10536634;28;20251;-69
2021/05/21 14:54:48;;;;;;;1.07;0.90;;;;;;;;;;10523606;28;20218;-70
2021/05/21 14:59:51;;;;;;;1.53;0.70;;;;;;;;;;10530351;28;20220;-68
2021/05/21 15:04:57;;;;;;;1.83;0.80;;;;;;;;;;10523900;28;20215;-69
2021/05/21 15:10:01;;;;;;;1.57;0.80;;;;;;;;;;10522486;28;20223;-69
2021/05/21 15:15:09;;;;;;;0.90;0.70;;;;;;;;;;10521573;28;20630;-70
2021/05/21 15:25:34;;;;;;;1.20;0.90;;;;;;;;;;10528508;28;20199;-70
2021/05/21 15:30:46;;;;;;;1.97;1.23;;;;;;;;;;10515448;28;20643;-70
2021/05/21 15:35:49;;;;;;;1.03;0.90;;;;;;;;;;10521187;28;20195;-71
2021/05/21 15:40:54;;;;;;;1.53;0.90;;;;;;;;;;10515385;28;20727;-71
2021/05/21 15:46:03;;;;;;;2.20;1.13;;;;;;;;;;10519882;28;20620;-71
2021/05/21 15:51:11;;;;;;;2.37;0.90;;;;;;;;;;10517969;28;20702;-71
2021/05/21 16:01:34;;;;;;;7.10;3.13;;;;;;;;;;10522984;28;20247;-70
2021/05/21 16:06:39;;;;;;;2.80;1.10;;;;;;;;;;10520186;28;20272;-71
2021/05/21 16:11:43;;;;;;;2.20;1.00;;;;;;;;;;10524150;28;20220;-69
2021/05/21 16:16:45;;;;;;;1.20;1.00;;;;;;;;;;10526977;28;20196;-71
2021/05/21 16:21:49;;;;;;;1.53;1.13;;;;;;;;;;10527057;28;21263;-71
2021/05/21 16:26:52;;;;;;;2.13;1.30;;;;;;;;;;10526718;28;20693;-71
2021/05/21 16:31:54;;;;;;;6.47;3.40;;;;;;;;;;10538075;28;20216;-72
2021/05/21 16:37:01;;;;;;;4.13;1.20;;;;;;;;;;10529490;28;20625;-71
2021/05/21 16:42:04;;;;;;;2.83;1.10;;;;;;;;;;10525086;28;20220;-69
2021/05/21 16:47:06;;;;;;;6.37;2.30;;;;;;;;;;10530097;28;20196;-69
2021/05/21 16:52:14;;;;;;;4.17;1.53;;;;;;;;;;10534143;28;20212;-74
2021/05/21 16:57:17;;;;;;;1.90;1.10;;;;;;;;;;10527653;28;20188;-70
2021/05/21 17:02:19;;;;;;;3.53;1.80;;;;;;;;;;10529837;28;20303;-70
2021/05/21 17:07:23;;;;;;;3.70;1.30;;;;;;;;;;10535896;28;20285;-71
2021/05/21 17:12:27;;;;;;;6.27;2.10;;;;;;;;;;10527146;28;20212;-70
2021/05/21 17:17:50;;;;;;;5.73;2.87;;;;;;;;;;10528098;28;20187;-71
2021/05/21 17:44:42;;;;;;;5.57;2.33;;;;;;;;;;10384664;28;20245;-68
2021/05/21 17:50:10;;;;;;;7.67;3.17;;;;;;;;;;10495426;28;20679;-71
2021/05/21 17:55:21;;;;;;;3.67;1.70;;;;;;;;;;10522496;28;20196;-70
2021/05/21 18:06:19;;;;;;;7.93;2.90;;;;;;;;;;10518136;28;20192;-71
2021/05/21 18:11:34;;;;;;;6.17;2.57;;;;;;;;;;10521865;28;20311;-70
2021/05/21 18:17:18;;;;;;;7.20;3.00;;;;;;;;;;10527101;28;20195;-70
2021/05/21 18:44:04;;;;;;;4.90;2.43;;;;;;;;;;10486701;28;20304;-71
2021/05/21 18:49:19;;;;;;;10.17;4.13;;;;;;;;;;10519227;28;20188;-70
2021/05/21 18:54:34;;;;;;;5.77;2.83;;;;;;;;;;10517378;28;20212;-70
2021/05/21 19:05:20;;;;;;;6.77;2.90;;;;;;;;;;10521459;28;20222;-70
2021/05/21 19:10:28;;;;;;;6.70;2.60;;;;;;;;;;10524304;28;20687;-72
2021/05/21 19:15:34;;;;;;;5.73;1.90;;;;;;;;;;10514383;28;20278;-71
2021/05/21 19:20:38;;;;;;;4.37;1.60;;;;;;;;;;10513647;28;20219;-71
2021/05/21 19:25:40;;;;;;;3.90;1.50;;;;;;;;;;10517724;28;20192;-70
2021/05/21 19:36:43;;;;;;;4.10;1.87;;;;;;;;;;10518736;28;20215;-72
2021/05/21 19:42:20;;;;;;;4.43;1.80;;;;;;;;;;10536506;28;20551;-71
2021/05/21 19:47:41;;;;;;;4.03;1.50;;;;;;;;;;10518425;28;20432;-71
2021/05/21 19:58:33;;;;;;;4.43;1.90;;;;;;;;;;10521600;28;20195;-71
2021/05/21 20:14:16;;;;;;;2.27;1.20;;;;;;;;;;10515089;28;20219;-71
2021/05/21 20:19:20;;;;;;;4.67;1.67;;;;;;;;;;10522247;28;20271;-68
2021/05/21 20:24:22;;;;;;;4.57;1.40;;;;;;;;;;10523207;28;20234;-70
2021/05/21 20:29:31;;;;;;;6.60;3.80;;;;;;;;;;10521725;28;20223;-71
2021/05/21 20:40:17;;;;;;;2.97;1.40;;;;;;;;;;10511259;28;20191;-71
2021/05/21 21:01:28;;;;;;;2.00;1.10;;;;;;;;;;10504580;28;20242;-71
2021/05/21 21:06:43;;;;;;;2.10;1.10;;;;;;;;;;10520603;28;20249;-71
2021/05/21 21:11:49;;;;;;;3.53;1.47;;;;;;;;;;10525127;28;20295;-72
2021/05/21 21:17:00;;;;;;;4.20;1.20;;;;;;;;;;10531624;28;20623;-70
2021/05/21 21:22:18;;;;;;;2.47;0.80;;;;;;;;;;10523317;28;20218;-71
2021/05/21 21:27:41;;;;;;;1.67;1.20;;;;;;;;;;10530897;28;20196;-71
2021/05/21 21:38:31;;;;;;;3.57;1.20;;;;;;;;;;10518834;28;20681;-71
2021/05/21 21:49:12;;;;;;;1.83;1.10;;;;;;;;;;10524096;28;20188;-69
2021/05/21 21:54:25;;;;;;;3.97;1.13;;;;;;;;;;10518146;28;20212;-72
2021/05/21 21:59:32;;;;;;;2.00;0.97;;;;;;;;;;10523996;28;20575;-73
2021/05/21 22:04:38;;;;;;;1.73;0.90;;;;;;;;;;10526063;28;20305;-71
2021/05/21 22:10:22;;;;;;;1.77;0.90;;;;;;;;;;10519648;28;20223;-71
2021/05/21 22:16:19;;;;;;;3.07;1.30;;;;;;;;;;10521242;28;20196;-72
2021/05/21 22:21:47;;;;;;;0.20;0.20;;;;;;;;;;10518988;28;20215;-70
2021/05/21 22:27:10;;;;;;;3.00;1.30;;;;;;;;;;10523854;28;20268;-72
2021/05/21 22:32:32;;;;;;;1.10;0.50;;;;;;;;;;10521882;28;20219;-72
2021/05/21 22:37:54;;;;;;;1.97;1.20;;;;;;;;;;10528180;28;20266;-70
2021/05/21 22:42:58;;;;;;;2.63;1.20;;;;;;;;;;10528375;28;20212;-71
2021/05/21 22:48:00;;;;;;;2.00;1.00;;;;;;;;;;10524202;28;20274;-71
2021/05/21 22:53:02;;;;;;;1.07;0.87;;;;;;;;;;10524890;28;20634;-69
2021/05/21 22:58:05;;;;;;;2.23;0.90;;;;;;;;;;10522106;28;20199;-71
2021/05/21 23:03:08;;;;;;;1.77;0.90;;;;;;;;;;10521895;28;20212;-71
2021/05/21 23:08:10;;;;;;;3.10;0.93;;;;;;;;;;10519215;28;20200;-71
2021/05/21 23:13:12;;;;;;;2.40;0.50;;;;;;;;;;10527822;28;20679;-71
2021/05/21 23:18:15;;;;;;;1.20;0.80;;;;;;;;;;10519224;28;20196;-69
2021/05/21 23:23:17;;;;;;;1.70;1.00;;;;;;;;;;10516302;28;20731;-71
2021/05/21 23:28:20;;;;;;;1.37;0.70;;;;;;;;;;10522831;28;20196;-71
2021/05/21 23:33:22;;;;;;;1.83;0.90;;;;;;;;;;10523337;28;20215;-71
2021/05/21 23:38:25;;;;;;;1.13;0.80;;;;;;;;;;10518716;28;20184;-72
2021/05/21 23:43:28;;;;;;;2.03;1.00;;;;;;;;;;10525129;28;20212;-72
2021/05/21 23:48:30;;;;;;;1.20;0.80;;;;;;;;;;10521784;28;20274;-71
2021/05/21 23:53:34;;;;;;;4.10;1.00;;;;;;;;;;10523230;28;20222;-74
2021/05/21 23:58:37;;;;;;;1.93;0.63;;;;;;;;;;10520765;28;20191;-73
